Time;durP1;ratioP1;P1;durP2;ratioP2;P2;SDS_P1;SDS_P2;PMS_P1;PMS_P2;Temp;Humidity;BMP_temperature;BMP_pressure;BME280_temperature;BME280_humidity;BME280_pressure;Samples;Min_cycle;Max_cycle;Signal;HPM_P1;HPM_P2
2024/01/07 00:01:48;;;;;;;85.43;31.88;;;;;;;;;;5061812;28;20536;-87
2024/01/07 00:04:18;;;;;;;77.20;31.30;;;;;;;;;;5040367;28;20406;-87
2024/01/07 00:06:47;;;;;;;78.30;31.98;;;;;;;;;;5045526;28;20045;-88
2024/01/07 00:09:14;;;;;;;90.80;30.80;;;;;;;;;;5046594;28;20459;-87
2024/01/07 00:11:41;;;;;;;82.60;30.38;;;;;;;;;;5045105;28;20059;-88
2024/01/07 00:14:09;;;;;;;78.65;30.83;;;;;;;;;;5059659;28;20058;-87
2024/01/07 00:16:36;;;;;;;81.18;30.70;;;;;;;;;;5059833;28;20100;-87
2024/01/07 00:19:03;;;;;;;83.32;31.75;;;;;;;;;;5059169;28;20077;-87
2024/01/07 00:21:31;;;;;;;91.70;31.98;;;;;;;;;;5059898;28;20050;-88
2024/01/07 00:23:58;;;;;;;84.38;34.97;;;;;;;;;;5046094;28;20057;-87
2024/01/07 00:26:25;;;;;;;79.97;33.50;;;;;;;;;;5046123;28;20098;-88
2024/01/07 00:28:52;;;;;;;85.32;32.30;;;;;;;;;;5043116;28;20053;-87
2024/01/07 00:31:19;;;;;;;81.03;31.77;;;;;;;;;;5059302;28;20486;-88
2024/01/07 00:33:47;;;;;;;79.55;30.58;;;;;;;;;;5055496;28;20083;-87
2024/01/07 00:36:14;;;;;;;83.93;31.95;;;;;;;;;;5035651;28;20102;-87
2024/01/07 00:38:41;;;;;;;77.15;29.77;;;;;;;;;;5044231;28;20057;-87
2024/01/07 00:41:09;;;;;;;84.53;35.00;;;;;;;;;;5058941;28;20072;-87
2024/01/07 00:43:36;;;;;;;77.15;33.55;;;;;;;;;;5061050;28;20053;-87
2024/01/07 00:46:03;;;;;;;83.07;32.90;;;;;;;;;;5064679;28;20059;-87
2024/01/07 00:48:31;;;;;;;82.00;32.75;;;;;;;;;;5048900;28;20053;-87
2024/01/07 00:50:58;;;;;;;82.10;33.50;;;;;;;;;;5058936;28;20056;-87
2024/01/07 00:53:25;;;;;;;90.72;33.95;;;;;;;;;;5042215;28;20053;-87
2024/01/07 00:55:52;;;;;;;93.00;34.20;;;;;;;;;;5055676;28;20092;-87
2024/01/07 00:58:20;;;;;;;86.28;32.28;;;;;;;;;;5036363;28;20460;-87
2024/01/07 01:00:47;;;;;;;92.90;32.33;;;;;;;;;;5043538;28;20111;-88
2024/01/07 01:03:14;;;;;;;94.07;35.50;;;;;;;;;;5058971;28;20084;-88
2024/01/07 01:05:41;;;;;;;105.53;36.08;;;;;;;;;;5060247;28;20132;-87
2024/01/07 01:08:09;;;;;;;104.40;35.58;;;;;;;;;;5045778;28;20048;-87
2024/01/07 01:10:36;;;;;;;104.03;36.28;;;;;;;;;;5045020;28;20080;-87
2024/01/07 01:13:03;;;;;;;104.05;32.72;;;;;;;;;;5058833;28;20091;-87
2024/01/07 01:15:31;;;;;;;100.15;32.85;;;;;;;;;;5058633;28;20084;-87
2024/01/07 01:17:58;;;;;;;96.53;32.88;;;;;;;;;;5045277;28;20483;-86
2024/01/07 01:20:25;;;;;;;112.90;33.50;;;;;;;;;;5045320;28;20049;-88
2024/01/07 01:22:53;;;;;;;90.18;32.78;;;;;;;;;;5036976;28;20098;-88
2024/01/07 01:25:20;;;;;;;95.53;33.47;;;;;;;;;;5045387;28;20437;-87
2024/01/07 01:27:48;;;;;;;87.30;32.03;;;;;;;;;;5042794;28;20136;-87
2024/01/07 01:30:15;;;;;;;106.63;37.72;;;;;;;;;;5058280;28;20118;-88
2024/01/07 01:32:42;;;;;;;86.15;29.55;;;;;;;;;;5059949;28;20047;-87
2024/01/07 01:35:09;;;;;;;82.35;31.08;;;;;;;;;;5044771;28;20056;-87
2024/01/07 01:37:37;;;;;;;96.80;32.88;;;;;;;;;;5043840;28;20052;-87
2024/01/07 01:40:04;;;;;;;86.22;31.48;;;;;;;;;;5057792;28;20073;-87
2024/01/07 01:42:32;;;;;;;82.55;29.55;;;;;;;;;;5057746;28;20076;-87
2024/01/07 01:45:01;;;;;;;77.93;28.50;;;;;;;;;;5044244;28;20061;-87
2024/01/07 01:47:30;;;;;;;91.15;36.67;;;;;;;;;;5044689;28;20425;-88
2024/01/07 01:49:57;;;;;;;87.15;34.85;;;;;;;;;;5033569;28;20045;-88
2024/01/07 01:52:25;;;;;;;79.82;32.58;;;;;;;;;;5065467;28;20052;-88
2024/01/07 01:54:52;;;;;;;83.72;34.28;;;;;;;;;;5041476;28;20045;-88
2024/01/07 01:57:22;;;;;;;83.35;32.00;;;;;;;;;;5041598;28;20140;-88
2024/01/07 01:59:49;;;;;;;71.55;29.08;;;;;;;;;;5050101;28;20098;-87
2024/01/07 02:02:17;;;;;;;78.30;28.90;;;;;;;;;;5059905;28;20044;-88
2024/01/07 02:04:44;;;;;;;76.13;28.60;;;;;;;;;;5043552;28;20053;-88
2024/01/07 02:07:12;;;;;;;74.47;32.35;;;;;;;;;;5057763;28;20052;-88
2024/01/07 02:09:39;;;;;;;66.28;26.13;;;;;;;;;;5042500;28;20068;-88
2024/01/07 02:12:11;;;;;;;72.00;28.05;;;;;;;;;;5044326;28;20059;-87
2024/01/07 02:14:39;;;;;;;81.97;30.70;;;;;;;;;;5027850;28;20084;-88
2024/01/07 02:17:06;;;;;;;77.65;28.98;;;;;;;;;;5039396;28;20049;-87
2024/01/07 02:19:33;;;;;;;71.03;28.45;;;;;;;;;;5041145;28;20134;-88
2024/01/07 02:22:01;;;;;;;62.63;28.85;;;;;;;;;;5044236;28;20061;-88
2024/01/07 02:24:28;;;;;;;55.92;24.15;;;;;;;;;;5044024;28;20056;-88
2024/01/07 02:26:55;;;;;;;60.28;24.85;;;;;;;;;;5019749;28;20106;-88
2024/01/07 02:29:23;;;;;;;59.85;25.73;;;;;;;;;;5044370;28;20049;-88
2024/01/07 02:31:50;;;;;;;58.05;24.95;;;;;;;;;;5041250;28;20122;-89
2024/01/07 02:34:17;;;;;;;67.07;27.75;;;;;;;;;;5063685;28;20508;-88
2024/01/07 02:36:44;;;;;;;53.53;23.23;;;;;;;;;;5042023;28;20048;-88
2024/01/07 02:39:12;;;;;;;61.40;27.95;;;;;;;;;;5057138;28;20049;-89
2024/01/07 02:41:39;;;;;;;62.40;27.45;;;;;;;;;;5058317;28;20133;-88
2024/01/07 02:44:06;;;;;;;67.90;29.42;;;;;;;;;;5043510;28;20053;-88
2024/01/07 02:46:36;;;;;;;78.15;33.53;;;;;;;;;;5043137;28;20519;-89
2024/01/07 02:49:03;;;;;;;107.93;46.25;;;;;;;;;;5057172;28;20075;-88
2024/01/07 02:51:31;;;;;;;93.53;39.63;;;;;;;;;;5041013;28;20090;-90
2024/01/07 02:53:58;;;;;;;163.75;74.65;;;;;;;;;;5043687;28;20057;-88
2024/01/07 02:56:25;;;;;;;67.20;29.38;;;;;;;;;;5038441;28;20582;-88
2024/01/07 02:58:52;;;;;;;70.85;32.65;;;;;;;;;;5064296;28;20045;-89
2024/01/07 03:01:23;;;;;;;68.03;30.00;;;;;;;;;;5048177;28;20045;-89
2024/01/07 03:03:50;;;;;;;79.90;38.72;;;;;;;;;;5045089;28;20131;-89
2024/01/07 03:06:18;;;;;;;81.30;32.38;;;;;;;;;;5045624;28;20061;-89
2024/01/07 03:08:45;;;;;;;66.38;28.85;;;;;;;;;;5063296;28;20058;-89
2024/01/07 03:11:12;;;;;;;76.10;32.78;;;;;;;;;;5048055;28;20048;-89
2024/01/07 03:13:40;;;;;;;82.07;37.13;;;;;;;;;;5046900;28;20044;-90
2024/01/07 03:16:08;;;;;;;79.80;37.05;;;;;;;;;;5061327;28;20037;-89
2024/01/07 03:18:35;;;;;;;160.38;76.32;;;;;;;;;;5053193;28;20049;-89
2024/01/07 03:21:02;;;;;;;58.05;27.13;;;;;;;;;;5047549;28;20048;-89
2024/01/07 03:23:30;;;;;;;66.72;31.15;;;;;;;;;;5047437;28;20387;-89
2024/01/07 03:25:58;;;;;;;115.05;53.05;;;;;;;;;;5060985;28;20053;-89
2024/01/07 03:28:26;;;;;;;105.35;45.30;;;;;;;;;;5060773;28;20045;-89
2024/01/07 03:30:53;;;;;;;129.25;58.45;;;;;;;;;;5063541;28;20052;-89
2024/01/07 03:33:21;;;;;;;76.95;34.33;;;;;;;;;;5047291;28;20555;-89
2024/01/07 03:35:48;;;;;;;68.20;29.25;;;;;;;;;;5045602;28;20056;-88
2024/01/07 03:38:15;;;;;;;68.75;32.75;;;;;;;;;;5044671;28;20050;-89
2024/01/07 03:40:42;;;;;;;91.95;44.70;;;;;;;;;;5060601;28;20409;-89
2024/01/07 03:43:10;;;;;;;90.65;44.38;;;;;;;;;;5043980;28;20056;-90
2024/01/07 03:45:37;;;;;;;80.07;38.05;;;;;;;;;;5061263;28;20076;-90
2024/01/07 03:48:04;;;;;;;122.80;51.65;;;;;;;;;;5047032;28;20049;-91
2024/01/07 03:50:32;;;;;;;184.13;70.75;;;;;;;;;;5046662;28;20115;-90
2024/01/07 03:52:59;;;;;;;72.88;32.00;;;;;;;;;;5064240;28;20053;-90
2024/01/07 03:55:26;;;;;;;39.70;21.70;;;;;;;;;;5047081;28;20079;-91
2024/01/07 03:57:53;;;;;;;36.15;20.02;;;;;;;;;;5043374;28;20391;-91
2024/01/07 04:00:21;;;;;;;36.63;18.85;;;;;;;;;;5060242;28;20049;-90
2024/01/07 04:02:48;;;;;;;32.22;17.75;;;;;;;;;;5062383;28;20045;-91
2024/01/07 04:05:15;;;;;;;30.02;17.25;;;;;;;;;;5034227;28;20457;-90
2024/01/07 04:07:42;;;;;;;29.05;17.00;;;;;;;;;;5041424;28;20067;-90
2024/01/07 04:10:10;;;;;;;27.98;17.02;;;;;;;;;;5060227;28;20087;-90
2024/01/07 04:12:37;;;;;;;25.55;16.10;;;;;;;;;;5060894;28;20099;-91
2024/01/07 04:15:05;;;;;;;28.00;16.25;;;;;;;;;;5046535;28;20516;-92
2024/01/07 04:17:32;;;;;;;30.10;17.73;;;;;;;;;;5046130;28;20053;-90
2024/01/07 04:20:00;;;;;;;29.48;16.45;;;;;;;;;;5043191;28;20506;-90
2024/01/07 04:22:27;;;;;;;28.05;16.58;;;;;;;;;;5043476;28;20069;-90
2024/01/07 04:24:55;;;;;;;25.48;16.00;;;;;;;;;;5029715;28;20048;-91
2024/01/07 04:27:22;;;;;;;28.55;16.52;;;;;;;;;;5046799;28;20493;-90
2024/01/07 04:29:49;;;;;;;27.83;16.67;;;;;;;;;;5047240;28;20493;-90
2024/01/07 04:32:17;;;;;;;29.17;16.92;;;;;;;;;;5067035;28;20049;-90
2024/01/07 04:34:44;;;;;;;25.73;15.77;;;;;;;;;;5052476;28;20103;-91
2024/01/07 04:37:11;;;;;;;26.33;16.60;;;;;;;;;;5046105;28;20477;-89
2024/01/07 04:39:39;;;;;;;27.98;18.30;;;;;;;;;;5045092;28;20059;-89
2024/01/07 04:42:07;;;;;;;28.92;17.15;;;;;;;;;;5059449;28;20505;-90
2024/01/07 04:44:38;;;;;;;26.27;17.25;;;;;;;;;;5050279;28;20053;-89
2024/01/07 04:47:05;;;;;;;28.92;17.02;;;;;;;;;;5059469;28;20053;-90
2024/01/07 04:49:32;;;;;;;27.20;16.85;;;;;;;;;;5059965;28;20061;-90
2024/01/07 04:52:00;;;;;;;27.70;17.02;;;;;;;;;;5046395;28;20555;-90
2024/01/07 04:54:27;;;;;;;26.38;16.80;;;;;;;;;;5045762;28;20048;-90
2024/01/07 04:56:55;;;;;;;28.35;16.85;;;;;;;;;;5042336;28;20049;-90
2024/01/07 04:59:22;;;;;;;25.30;15.80;;;;;;;;;;5058982;28;20041;-90
2024/01/07 05:01:50;;;;;;;25.60;16.27;;;;;;;;;;5061690;28;20060;-89
2024/01/07 05:04:17;;;;;;;30.00;17.05;;;;;;;;;;5045863;28;20045;-90
2024/01/07 05:06:45;;;;;;;26.75;16.33;;;;;;;;;;5043712;28;20052;-89
2024/01/07 05:09:12;;;;;;;26.23;16.88;;;;;;;;;;5042383;28;20463;-91
2024/01/07 05:11:40;;;;;;;23.67;15.65;;;;;;;;;;5043230;28;20096;-90
2024/01/07 05:14:07;;;;;;;26.63;16.35;;;;;;;;;;5045523;28;20490;-90
2024/01/07 05:16:35;;;;;;;26.38;16.83;;;;;;;;;;5045104;28;20115;-91
2024/01/07 05:19:02;;;;;;;27.80;16.40;;;;;;;;;;5057537;28;21058;-91
2024/01/07 05:21:29;;;;;;;27.38;16.70;;;;;;;;;;5058742;28;20076;-90
2024/01/07 05:23:56;;;;;;;27.48;16.75;;;;;;;;;;5038036;28;20104;-91
2024/01/07 05:26:24;;;;;;;27.33;17.08;;;;;;;;;;5037456;28;20089;-92
2024/01/07 05:28:51;;;;;;;26.42;16.70;;;;;;;;;;5045136;28;20040;-92
2024/01/07 05:31:19;;;;;;;28.63;18.88;;;;;;;;;;5045460;28;20053;-90
2024/01/07 05:33:46;;;;;;;25.17;17.13;;;;;;;;;;5042951;28;20055;-91
2024/01/07 05:36:14;;;;;;;27.20;17.13;;;;;;;;;;5058325;28;20053;-91
2024/01/07 05:38:44;;;;;;;27.98;17.77;;;;;;;;;;5059715;28;20046;-92
2024/01/07 05:41:11;;;;;;;30.33;18.52;;;;;;;;;;5044937;28;20296;-91
2024/01/07 05:43:38;;;;;;;31.45;19.33;;;;;;;;;;5044437;28;20151;-92
2024/01/07 05:46:06;;;;;;;34.58;19.58;;;;;;;;;;5062234;28;20055;-92
2024/01/07 05:48:44;;;;;;;30.92;19.67;;;;;;;;;;5066635;28;20068;-90
2024/01/07 05:51:12;;;;;;;33.47;20.52;;;;;;;;;;5044638;28;20053;-90
2024/01/07 05:53:40;;;;;;;31.75;20.13;;;;;;;;;;5043365;28;20060;-90
2024/01/07 05:56:07;;;;;;;34.05;20.10;;;;;;;;;;5058065;28;20049;-91
2024/01/07 05:58:34;;;;;;;35.17;19.58;;;;;;;;;;5058297;28;20049;-91
2024/01/07 06:01:02;;;;;;;30.48;19.88;;;;;;;;;;5044856;28;20056;-93
2024/01/07 06:03:29;;;;;;;29.10;18.95;;;;;;;;;;5036589;28;20060;-92
2024/01/07 06:05:58;;;;;;;31.20;19.05;;;;;;;;;;5060845;28;20048;-92
2024/01/07 06:08:26;;;;;;;34.67;21.35;;;;;;;;;;5044815;28;20051;-92
2024/01/07 06:10:54;;;;;;;33.60;20.50;;;;;;;;;;5030078;28;20050;-92
2024/01/07 06:13:21;;;;;;;38.35;21.20;;;;;;;;;;5019833;28;20490;-92
2024/01/07 06:15:48;;;;;;;38.15;22.98;;;;;;;;;;5043778;28;20556;-91
2024/01/07 06:18:16;;;;;;;36.35;22.05;;;;;;;;;;5032119;28;20550;-91
2024/01/07 06:20:43;;;;;;;38.08;23.17;;;;;;;;;;5039536;28;20049;-91
2024/01/07 06:23:10;;;;;;;34.83;22.27;;;;;;;;;;5057951;28;20382;-91
2024/01/07 06:25:39;;;;;;;36.13;22.33;;;;;;;;;;5057895;28;20072;-90
2024/01/07 06:28:06;;;;;;;31.63;21.08;;;;;;;;;;5057959;28;20054;-90
2024/01/07 06:30:33;;;;;;;38.50;22.52;;;;;;;;;;5055941;28;20126;-91
2024/01/07 06:33:01;;;;;;;34.15;21.27;;;;;;;;;;5041294;28;20057;-90
2024/01/07 06:35:29;;;;;;;31.27;20.48;;;;;;;;;;5040954;28;20057;-91
2024/01/07 06:37:56;;;;;;;33.35;21.80;;;;;;;;;;5049164;28;20053;-91
2024/01/07 06:40:23;;;;;;;41.90;23.38;;;;;;;;;;5057397;28;20072;-92
2024/01/07 06:42:51;;;;;;;39.30;22.67;;;;;;;;;;5059761;28;20061;-92
2024/01/07 06:45:18;;;;;;;41.25;24.38;;;;;;;;;;5044145;28;20409;-91
2024/01/07 06:47:46;;;;;;;37.25;23.60;;;;;;;;;;5041774;28;20409;-91
2024/01/07 06:50:13;;;;;;;35.15;21.73;;;;;;;;;;5054753;28;20076;-91
2024/01/07 06:52:40;;;;;;;40.17;22.75;;;;;;;;;;5042812;28;20144;-91
2024/01/07 06:55:08;;;;;;;37.28;22.67;;;;;;;;;;5057307;28;20142;-91
2024/01/07 06:57:35;;;;;;;37.25;23.65;;;;;;;;;;5058202;28;20052;-91
2024/01/07 07:00:04;;;;;;;38.20;22.17;;;;;;;;;;5046288;28;20060;-92
2024/01/07 07:02:31;;;;;;;38.80;22.92;;;;;;;;;;5068677;28;20067;-90
2024/01/07 07:04:58;;;;;;;40.80;25.20;;;;;;;;;;5065116;28;20083;-90
2024/01/07 07:07:25;;;;;;;38.30;23.27;;;;;;;;;;5056727;28;20049;-89
2024/01/07 07:09:53;;;;;;;35.78;22.17;;;;;;;;;;5040741;28;20073;-90
2024/01/07 07:12:20;;;;;;;38.28;23.00;;;;;;;;;;5056971;28;20053;-91
2024/01/07 07:14:47;;;;;;;37.67;21.23;;;;;;;;;;5059087;28;20081;-90
2024/01/07 07:17:15;;;;;;;42.47;22.45;;;;;;;;;;5037547;28;20457;-89
2024/01/07 07:19:42;;;;;;;34.83;20.23;;;;;;;;;;5058069;28;20053;-90
2024/01/07 07:22:12;;;;;;;38.40;21.38;;;;;;;;;;5043742;28;20052;-90
2024/01/07 07:24:41;;;;;;;39.47;21.73;;;;;;;;;;5043972;28;20056;-90
2024/01/07 07:27:09;;;;;;;37.90;22.60;;;;;;;;;;5043923;28;20053;-90
2024/01/07 07:29:36;;;;;;;30.98;19.52;;;;;;;;;;5041547;28;20049;-90
2024/01/07 07:32:03;;;;;;;38.53;21.95;;;;;;;;;;5056001;28;20084;-91
2024/01/07 07:34:31;;;;;;;33.50;19.52;;;;;;;;;;5056038;28;20041;-90
2024/01/07 07:36:58;;;;;;;30.83;19.38;;;;;;;;;;5038631;28;20056;-88
2024/01/07 07:39:26;;;;;;;32.97;19.63;;;;;;;;;;5039611;28;20072;-90
2024/01/07 07:41:53;;;;;;;34.45;19.60;;;;;;;;;;5044486;28;20470;-89
2024/01/07 07:44:20;;;;;;;32.83;19.00;;;;;;;;;;5047095;28;20067;-90
2024/01/07 07:46:48;;;;;;;36.05;17.70;;;;;;;;;;5044553;28;20049;-91
2024/01/07 07:49:16;;;;;;;33.53;18.58;;;;;;;;;;5037741;28;20553;-89
2024/01/07 07:51:44;;;;;;;30.83;17.80;;;;;;;;;;5042304;28;20472;-90
2024/01/07 07:54:11;;;;;;;35.85;18.38;;;;;;;;;;5060107;28;20080;-89
2024/01/07 07:56:38;;;;;;;29.13;17.65;;;;;;;;;;5035488;28;20069;-90
2024/01/07 07:59:06;;;;;;;30.00;15.90;;;;;;;;;;5060012;28;20180;-90
2024/01/07 08:01:33;;;;;;;27.52;16.15;;;;;;;;;;5060311;28;20576;-90
2024/01/07 08:04:02;;;;;;;26.55;15.75;;;;;;;;;;5046729;28;20083;-90
2024/01/07 08:06:30;;;;;;;30.52;17.42;;;;;;;;;;5047000;28;20060;-92
2024/01/07 08:08:57;;;;;;;26.33;15.38;;;;;;;;;;5052183;28;20053;-90
2024/01/07 08:11:24;;;;;;;26.25;16.30;;;;;;;;;;5059958;28;20076;-90
2024/01/07 08:13:51;;;;;;;25.40;15.55;;;;;;;;;;5057111;28;20057;-90
2024/01/07 08:16:19;;;;;;;26.75;15.77;;;;;;;;;;5035036;28;20045;-90
2024/01/07 08:18:46;;;;;;;24.48;14.90;;;;;;;;;;5075878;28;20069;-90
2024/01/07 08:21:14;;;;;;;26.98;15.02;;;;;;;;;;5046658;28;20053;-91
2024/01/07 08:23:41;;;;;;;20.58;13.65;;;;;;;;;;5044893;28;20111;-90
2024/01/07 08:26:08;;;;;;;23.50;14.10;;;;;;;;;;5059638;28;20053;-91
2024/01/07 08:28:35;;;;;;;21.77;13.02;;;;;;;;;;5060358;28;20054;-90
2024/01/07 08:31:03;;;;;;;22.48;13.88;;;;;;;;;;5046532;28;20056;-91
2024/01/07 08:33:33;;;;;;;27.55;13.98;;;;;;;;;;5046414;28;20095;-91
2024/01/07 08:36:00;;;;;;;172.40;89.15;;;;;;;;;;5043025;28;20057;-91
2024/01/07 08:38:27;;;;;;;24.63;14.95;;;;;;;;;;5043813;28;20450;-90
2024/01/07 08:40:55;;;;;;;25.25;14.80;;;;;;;;;;5063229;28;20440;-90
2024/01/07 08:43:22;;;;;;;26.75;18.77;;;;;;;;;;5047122;28;20102;-91
2024/01/07 08:45:50;;;;;;;24.13;16.75;;;;;;;;;;5044141;28;20148;-90
2024/01/07 08:48:17;;;;;;;24.25;13.60;;;;;;;;;;5060559;28;20049;-91
2024/01/07 08:50:46;;;;;;;37.28;22.90;;;;;;;;;;5035453;28;20050;-90
2024/01/07 08:53:14;;;;;;;34.13;20.13;;;;;;;;;;5036623;28;20061;-90
2024/01/07 08:55:41;;;;;;;27.67;17.17;;;;;;;;;;5041584;28;20463;-90
2024/01/07 08:58:09;;;;;;;30.73;19.27;;;;;;;;;;5060650;28;20119;-91
2024/01/07 09:00:36;;;;;;;30.90;17.52;;;;;;;;;;5059869;28;20049;-90
2024/01/07 09:03:04;;;;;;;39.10;25.48;;;;;;;;;;5060691;28;20164;-91
2024/01/07 09:05:31;;;;;;;27.80;18.30;;;;;;;;;;5060389;28;20053;-90
2024/01/07 09:07:58;;;;;;;21.05;12.18;;;;;;;;;;5046268;28;20044;-91
2024/01/07 09:10:29;;;;;;;21.23;15.32;;;;;;;;;;5046738;28;20049;-91
2024/01/07 09:12:57;;;;;;;22.73;12.95;;;;;;;;;;5038691;28;20405;-90
2024/01/07 09:15:24;;;;;;;24.42;15.32;;;;;;;;;;5046244;28;20053;-90
2024/01/07 09:17:51;;;;;;;23.20;14.52;;;;;;;;;;5026526;28;20045;-90
2024/01/07 09:20:19;;;;;;;19.05;12.40;;;;;;;;;;5058556;28;20094;-92
2024/01/07 09:22:48;;;;;;;44.97;30.58;;;;;;;;;;5060975;28;20058;-90
2024/01/07 09:25:16;;;;;;;35.63;20.95;;;;;;;;;;5045660;28;20390;-91
2024/01/07 09:27:43;;;;;;;57.97;27.90;;;;;;;;;;5044383;28;20056;-90
2024/01/07 09:30:14;;;;;;;83.68;47.72;;;;;;;;;;5066386;28;20037;-91
2024/01/07 09:32:42;;;;;;;22.95;14.70;;;;;;;;;;5071277;28;20541;-90
2024/01/07 09:35:09;;;;;;;46.05;23.77;;;;;;;;;;5046109;28;20064;-89
2024/01/07 09:37:36;;;;;;;18.38;11.43;;;;;;;;;;5045920;28;20045;-90
2024/01/07 09:40:07;;;;;;;16.17;10.18;;;;;;;;;;5043356;28;20053;-91
2024/01/07 09:42:35;;;;;;;21.95;12.60;;;;;;;;;;5058881;28;20053;-91
2024/01/07 09:45:06;;;;;;;16.65;10.35;;;;;;;;;;5059978;28;20497;-90
2024/01/07 09:47:34;;;;;;;44.83;23.48;;;;;;;;;;5060692;28;20136;-91
2024/01/07 09:50:01;;;;;;;38.90;20.27;;;;;;;;;;5047323;28;20045;-91
2024/01/07 09:52:29;;;;;;;158.73;75.25;;;;;;;;;;5046736;28;20112;-90
2024/01/07 09:55:00;;;;;;;38.75;18.67;;;;;;;;;;5051684;28;20049;-92
2024/01/07 09:57:27;;;;;;;123.53;50.17;;;;;;;;;;5043533;28;20042;-92
2024/01/07 09:59:55;;;;;;;52.47;23.88;;;;;;;;;;5061603;28;20116;-91
2024/01/07 10:02:23;;;;;;;15.02;9.90;;;;;;;;;;5045111;28;20053;-90
2024/01/07 10:04:50;;;;;;;9.95;7.75;;;;;;;;;;5042082;28;20721;-91
2024/01/07 10:07:18;;;;;;;17.98;13.23;;;;;;;;;;5058897;28;20514;-92
2024/01/07 10:09:46;;;;;;;14.02;8.90;;;;;;;;;;5058719;28;20103;-91
2024/01/07 10:12:13;;;;;;;10.27;7.03;;;;;;;;;;5059278;28;20049;-90
2024/01/07 10:14:40;;;;;;;9.43;6.97;;;;;;;;;;5060232;28;20057;-91
2024/01/07 10:17:17;;;;;;;11.27;7.55;;;;;;;;;;5045299;28;20045;-90
2024/01/07 10:19:48;;;;;;;11.68;7.70;;;;;;;;;;5036388;28;20068;-92
2024/01/07 10:22:16;;;;;;;14.40;9.63;;;;;;;;;;5045010;28;20045;-91
2024/01/07 10:24:43;;;;;;;10.48;7.13;;;;;;;;;;5036083;28;20077;-90
2024/01/07 10:27:11;;;;;;;8.10;5.43;;;;;;;;;;5044356;28;20155;-91
2024/01/07 10:29:38;;;;;;;6.78;5.90;;;;;;;;;;5028022;28;20053;-91
2024/01/07 10:32:05;;;;;;;11.00;6.72;;;;;;;;;;5058310;28;20568;-92
2024/01/07 10:34:34;;;;;;;8.82;6.65;;;;;;;;;;5059279;28;20064;-91
2024/01/07 10:37:03;;;;;;;29.17;17.17;;;;;;;;;;5045521;28;20068;-91
2024/01/07 10:39:30;;;;;;;28.77;21.70;;;;;;;;;;5045666;28;20064;-90
2024/01/07 10:41:58;;;;;;;24.52;16.85;;;;;;;;;;5050540;28;20053;-91
2024/01/07 10:44:30;;;;;;;24.83;21.25;;;;;;;;;;5061226;28;20041;-92
2024/01/07 10:46:59;;;;;;;28.08;22.55;;;;;;;;;;5041477;28;20053;-91
2024/01/07 10:49:27;;;;;;;19.48;15.68;;;;;;;;;;5041932;28;20107;-91
2024/01/07 10:52:07;;;;;;;20.63;17.33;;;;;;;;;;5058217;28;20069;-91
2024/01/07 10:54:36;;;;;;;13.27;11.05;;;;;;;;;;5058584;28;20103;-91
2024/01/07 10:57:19;;;;;;;16.55;13.55;;;;;;;;;;5045081;28;20045;-91
2024/01/07 10:59:47;;;;;;;16.33;10.57;;;;;;;;;;5037906;28;20486;-92
2024/01/07 11:02:14;;;;;;;10.13;7.80;;;;;;;;;;5044737;28;20420;-93
2024/01/07 11:04:54;;;;;;;13.57;8.70;;;;;;;;;;5043057;28;20052;-92
2024/01/07 11:07:32;;;;;;;10.73;9.10;;;;;;;;;;5058509;28;20061;-93
2024/01/07 11:10:06;;;;;;;11.18;7.78;;;;;;;;;;5050051;28;20407;-91
2024/01/07 11:12:34;;;;;;;12.25;9.77;;;;;;;;;;5059004;28;20140;-92
2024/01/07 11:15:02;;;;;;;11.05;8.85;;;;;;;;;;5044505;28;20052;-92
2024/01/07 11:17:32;;;;;;;11.20;7.70;;;;;;;;;;5047387;28;20051;-92
2024/01/07 11:20:03;;;;;;;34.08;28.75;;;;;;;;;;5036856;28;20116;-92
2024/01/07 11:22:32;;;;;;;12.90;8.73;;;;;;;;;;5060975;28;20124;-92
2024/01/07 11:25:00;;;;;;;12.75;8.52;;;;;;;;;;5047437;28;20431;-92
2024/01/07 11:27:32;;;;;;;11.30;8.20;;;;;;;;;;5047573;28;20057;-92
2024/01/07 11:30:06;;;;;;;12.00;8.90;;;;;;;;;;5029956;28;20049;-92
2024/01/07 11:32:34;;;;;;;16.13;10.63;;;;;;;;;;5045520;28;20525;-92
2024/01/07 11:35:04;;;;;;;12.00;8.68;;;;;;;;;;5048068;28;20417;-91
2024/01/07 11:37:31;;;;;;;13.40;10.25;;;;;;;;;;5040006;28;20057;-92
2024/01/07 11:39:59;;;;;;;10.93;8.82;;;;;;;;;;5047739;28;20053;-93
2024/01/07 11:42:26;;;;;;;10.15;7.55;;;;;;;;;;5032176;28;20471;-91
2024/01/07 11:44:54;;;;;;;17.45;10.73;;;;;;;;;;5044252;28;20057;-92
2024/01/07 11:47:22;;;;;;;13.60;9.10;;;;;;;;;;5044769;28;20054;-91
2024/01/07 11:49:50;;;;;;;22.25;16.20;;;;;;;;;;5047274;28;20096;-92
2024/01/07 11:52:18;;;;;;;19.98;11.65;;;;;;;;;;5047829;28;20490;-93
2024/01/07 11:54:46;;;;;;;17.25;10.82;;;;;;;;;;5045661;28;20053;-91
2024/01/07 11:57:13;;;;;;;13.35;9.38;;;;;;;;;;5064339;28;20053;-92
2024/01/07 11:59:41;;;;;;;12.13;8.75;;;;;;;;;;5072300;28;20061;-90
2024/01/07 12:02:11;;;;;;;10.93;7.25;;;;;;;;;;5062079;28;20361;-90
2024/01/07 12:04:39;;;;;;;11.88;9.98;;;;;;;;;;5046201;28;20049;-91
2024/01/07 12:07:06;;;;;;;12.50;9.00;;;;;;;;;;5060178;28;20494;-92
2024/01/07 12:09:34;;;;;;;11.63;8.13;;;;;;;;;;5060485;28;20045;-91
2024/01/07 12:12:01;;;;;;;12.30;8.65;;;;;;;;;;5047630;28;20056;-92
2024/01/07 12:14:31;;;;;;;10.68;8.18;;;;;;;;;;5047072;28;20555;-91
2024/01/07 12:16:59;;;;;;;10.73;7.55;;;;;;;;;;5036287;28;20054;-91
2024/01/07 12:19:26;;;;;;;20.25;15.18;;;;;;;;;;5059592;28;20430;-89
2024/01/07 12:22:04;;;;;;;11.68;8.68;;;;;;;;;;5062749;28;20410;-92
2024/01/07 12:24:31;;;;;;;12.45;9.07;;;;;;;;;;5046624;28;20049;-92
2024/01/07 12:27:04;;;;;;;11.23;7.72;;;;;;;;;;5060604;28;20395;-91
2024/01/07 12:29:31;;;;;;;10.80;8.48;;;;;;;;;;5062246;28;20069;-91
2024/01/07 12:32:10;;;;;;;11.45;7.82;;;;;;;;;;5050578;28;20052;-90
2024/01/07 12:34:37;;;;;;;8.98;6.43;;;;;;;;;;5053090;28;20053;-91
2024/01/07 12:37:05;;;;;;;13.32;9.50;;;;;;;;;;5064892;28;20057;-90
2024/01/07 12:39:32;;;;;;;8.65;6.28;;;;;;;;;;5073820;28;20072;-90
2024/01/07 12:42:00;;;;;;;10.15;7.53;;;;;;;;;;5076159;28;20124;-91
2024/01/07 12:44:29;;;;;;;8.75;7.65;;;;;;;;;;5072466;28;20048;-91
2024/01/07 12:46:56;;;;;;;8.32;6.38;;;;;;;;;;5051126;28;20140;-91
2024/01/07 12:49:25;;;;;;;10.32;5.78;;;;;;;;;;5059756;28;20079;-90
2024/01/07 12:51:58;;;;;;;9.27;6.80;;;;;;;;;;5028395;28;20056;-91
2024/01/07 12:54:27;;;;;;;6.35;5.75;;;;;;;;;;5044099;28;20113;-90
2024/01/07 12:56:54;;;;;;;8.18;6.40;;;;;;;;;;5051635;28;20049;-91
2024/01/07 12:59:21;;;;;;;5.63;5.05;;;;;;;;;;5055439;28;20076;-91
2024/01/07 13:01:50;;;;;;;9.75;7.22;;;;;;;;;;5051264;28;20046;-89
2024/01/07 13:04:19;;;;;;;6.38;4.95;;;;;;;;;;5065812;28;20053;-92
2024/01/07 13:06:47;;;;;;;11.75;7.00;;;;;;;;;;5070589;28;20053;-93
2024/01/07 13:09:14;;;;;;;5.57;5.00;;;;;;;;;;5040176;28;20057;-91
2024/01/07 13:11:42;;;;;;;4.80;4.18;;;;;;;;;;5041678;28;20061;-91
2024/01/07 13:14:09;;;;;;;7.13;4.00;;;;;;;;;;5045658;28;20045;-91
2024/01/07 13:16:36;;;;;;;4.00;3.63;;;;;;;;;;5044866;28;20060;-92
2024/01/07 13:19:04;;;;;;;3.70;3.30;;;;;;;;;;5031009;28;20119;-92
2024/01/07 13:21:31;;;;;;;4.55;4.03;;;;;;;;;;5045853;28;20041;-91
2024/01/07 13:24:01;;;;;;;4.05;3.65;;;;;;;;;;5057512;28;20101;-91
2024/01/07 13:26:29;;;;;;;4.20;3.80;;;;;;;;;;5057715;28;20053;-91
2024/01/07 13:28:56;;;;;;;3.60;3.30;;;;;;;;;;5035173;28;20057;-91
2024/01/07 13:31:23;;;;;;;5.43;4.10;;;;;;;;;;5076195;28;20037;-90
2024/01/07 13:33:51;;;;;;;5.40;4.25;;;;;;;;;;5070444;28;20061;-91
2024/01/07 13:36:18;;;;;;;43.42;22.80;;;;;;;;;;5044281;28;20041;-91
2024/01/07 13:38:49;;;;;;;3.95;3.65;;;;;;;;;;5041792;28;20052;-91
2024/01/07 13:41:17;;;;;;;3.97;3.67;;;;;;;;;;5057265;28;20059;-91
2024/01/07 13:43:44;;;;;;;7.75;5.13;;;;;;;;;;5059060;28;20061;-91
2024/01/07 13:46:11;;;;;;;2.90;2.70;;;;;;;;;;5044385;28;20053;-91
2024/01/07 13:48:41;;;;;;;3.80;3.50;;;;;;;;;;5044128;28;20049;-91
2024/01/07 13:51:10;;;;;;;5.53;4.47;;;;;;;;;;5059642;28;20504;-91
2024/01/07 13:53:37;;;;;;;3.95;3.55;;;;;;;;;;5040906;28;20057;-90
2024/01/07 13:56:06;;;;;;;5.05;3.67;;;;;;;;;;5044208;28;20076;-90
2024/01/07 13:58:33;;;;;;;4.57;3.63;;;;;;;;;;5044214;28;20053;-91
2024/01/07 14:01:01;;;;;;;3.80;3.40;;;;;;;;;;5044282;28;20049;-90
2024/01/07 14:03:30;;;;;;;2.90;2.70;;;;;;;;;;5044409;28;20060;-90
2024/01/07 14:05:57;;;;;;;9.55;6.60;;;;;;;;;;5032964;28;20140;-90
2024/01/07 14:08:25;;;;;;;5.88;4.30;;;;;;;;;;5065012;28;20056;-90
2024/01/07 14:10:52;;;;;;;3.10;2.80;;;;;;;;;;5027799;28;20091;-90
2024/01/07 14:13:19;;;;;;;3.88;3.30;;;;;;;;;;5044179;28;20049;-90
2024/01/07 14:15:46;;;;;;;4.43;3.40;;;;;;;;;;5027279;28;20452;-90
2024/01/07 14:18:15;;;;;;;3.40;3.10;;;;;;;;;;4989177;28;1559815;-90
2024/01/07 14:20:43;;;;;;;5.43;4.63;;;;;;;;;;5032279;28;20119;-90
2024/01/07 14:23:10;;;;;;;3.35;3.15;;;;;;;;;;5044421;28;20413;-90
2024/01/07 14:25:37;;;;;;;5.00;4.50;;;;;;;;;;5043345;28;20048;-90